sensor_id;sensor_type;location;lat;lon;timestamp;temperature;humidity
19805;DHT22;10062;51.052;13.756;2024-03-17T00:01:17;6.30;1.00
19805;DHT22;10062;51.052;13.756;2024-03-17T00:03:49;7.60;1.00
19805;DHT22;10062;51.052;13.756;2024-03-17T00:06:19;6.30;1.00
19805;DHT22;10062;51.052;13.756;2024-03-17T00:08:51;6.30;1.00
19805;DHT22;10062;51.052;13.756;2024-03-17T00:11:22;6.30;1.00
19805;DHT22;10062;51.052;13.756;2024-03-17T00:13:55;6.40;1.00
19805;DHT22;10062;51.052;13.756;2024-03-17T00:16:26;6.40;1.00
19805;DHT22;10062;51.052;13.756;2024-03-17T00:18:58;6.40;1.00
19805;DHT22;10062;51.052;13.756;2024-03-17T00:21:29;6.40;1.00
19805;DHT22;10062;51.052;13.756;2024-03-17T00:24:00;6.40;1.00
19805;DHT22;10062;51.052;13.756;2024-03-17T00:26:32;6.50;1.00
19805;DHT22;10062;51.052;13.756;2024-03-17T00:29:06;6.40;1.00
19805;DHT22;10062;51.052;13.756;2024-03-17T00:31:37;6.40;1.00
19805;DHT22;10062;51.052;13.756;2024-03-17T00:34:08;6.40;1.00
19805;DHT22;10062;51.052;13.756;2024-03-17T00:36:40;6.40;1.00
19805;DHT22;10062;51.052;13.756;2024-03-17T00:39:12;6.40;1.00
19805;DHT22;10062;51.052;13.756;2024-03-17T00:41:43;6.40;1.00
19805;DHT22;10062;51.052;13.756;2024-03-17T00:44:17;6.20;1.00
19805;DHT22;10062;51.052;13.756;2024-03-17T00:46:47;6.20;1.00
19805;DHT22;10062;51.052;13.756;2024-03-17T00:49:19;6.10;1.00
19805;DHT22;10062;51.052;13.756;2024-03-17T00:51:50;6.10;1.00
19805;DHT22;10062;51.052;13.756;2024-03-17T00:54:22;6.10;1.00
19805;DHT22;10062;51.052;13.756;2024-03-17T00:56:52;6.00;1.00
19805;DHT22;10062;51.052;13.756;2024-03-17T00:59:25;5.90;1.00
19805;DHT22;10062;51.052;13.756;2024-03-17T01:01:56;6.00;1.00
19805;DHT22;10062;51.052;13.756;2024-03-17T01:04:28;5.90;1.00
19805;DHT22;10062;51.052;13.756;2024-03-17T01:06:59;5.90;1.00
19805;DHT22;10062;51.052;13.756;2024-03-17T01:09:31;5.90;1.00
19805;DHT22;10062;51.052;13.756;2024-03-17T01:12:02;6.10;1.00
19805;DHT22;10062;51.052;13.756;2024-03-17T01:14:35;6.10;1.00
19805;DHT22;10062;51.052;13.756;2024-03-17T01:17:07;5.90;1.00
19805;DHT22;10062;51.052;13.756;2024-03-17T01:19:37;5.90;1.00
19805;DHT22;10062;51.052;13.756;2024-03-17T01:22:09;7.20;1.00
19805;DHT22;10062;51.052;13.756;2024-03-17T01:24:41;5.80;1.00
19805;DHT22;10062;51.052;13.756;2024-03-17T01:27:16;5.80;1.00
19805;DHT22;10062;51.052;13.756;2024-03-17T01:29:49;5.70;1.00
19805;DHT22;10062;51.052;13.756;2024-03-17T01:32:20;5.70;1.00
19805;DHT22;10062;51.052;13.756;2024-03-17T01:34:51;5.70;1.00
19805;DHT22;10062;51.052;13.756;2024-03-17T01:37:22;5.70;1.00
19805;DHT22;10062;51.052;13.756;2024-03-17T01:39:55;5.70;1.00
19805;DHT22;10062;51.052;13.756;2024-03-17T01:42:25;5.60;1.00
19805;DHT22;10062;51.052;13.756;2024-03-17T01:44:58;5.60;1.00
19805;DHT22;10062;51.052;13.756;2024-03-17T01:47:29;5.50;1.00
19805;DHT22;10062;51.052;13.756;2024-03-17T01:50:01;5.50;1.00
19805;DHT22;10062;51.052;13.756;2024-03-17T01:52:32;5.50;1.00
19805;DHT22;10062;51.052;13.756;2024-03-17T01:55:04;5.60;1.00
19805;DHT22;10062;51.052;13.756;2024-03-17T01:57:35;5.50;1.00
19805;DHT22;10062;51.052;13.756;2024-03-17T02:00:08;5.50;1.00
19805;DHT22;10062;51.052;13.756;2024-03-17T02:02:40;5.50;1.00
19805;DHT22;10062;51.052;13.756;2024-03-17T02:05:11;5.90;1.00
19805;DHT22;10062;51.052;13.756;2024-03-17T02:07:44;5.40;1.00
19805;DHT22;10062;51.052;13.756;2024-03-17T02:10:14;5.40;1.00
19805;DHT22;10062;51.052;13.756;2024-03-17T02:12:46;5.40;1.00
19805;DHT22;10062;51.052;13.756;2024-03-17T02:15:19;5.40;1.00
19805;DHT22;10062;51.052;13.756;2024-03-17T02:17:51;5.30;1.00
19805;DHT22;10062;51.052;13.756;2024-03-17T02:20:22;5.40;1.00
19805;DHT22;10062;51.052;13.756;2024-03-17T02:23:15;6.20;1.00
19805;DHT22;10062;51.052;13.756;2024-03-17T02:25:46;5.40;1.00
19805;DHT22;10062;51.052;13.756;2024-03-17T02:28:19;5.50;1.00
19805;DHT22;10062;51.052;13.756;2024-03-17T02:30:49;5.50;1.00
19805;DHT22;10062;51.052;13.756;2024-03-17T02:33:21;5.60;1.00
19805;DHT22;10062;51.052;13.756;2024-03-17T02:35:53;5.50;1.00
19805;DHT22;10062;51.052;13.756;2024-03-17T02:38:26;5.50;1.00
19805;DHT22;10062;51.052;13.756;2024-03-17T02:41:12;5.50;1.00
19805;DHT22;10062;51.052;13.756;2024-03-17T02:43:44;5.50;1.00
19805;DHT22;10062;51.052;13.756;2024-03-17T02:46:17;5.50;1.00
19805;DHT22;10062;51.052;13.756;2024-03-17T02:48:52;5.50;1.00
19805;DHT22;10062;51.052;13.756;2024-03-17T02:51:23;5.50;1.00
19805;DHT22;10062;51.052;13.756;2024-03-17T02:53:56;5.50;1.00
19805;DHT22;10062;51.052;13.756;2024-03-17T02:56:29;5.50;1.00
19805;DHT22;10062;51.052;13.756;2024-03-17T02:59:01;5.50;1.00
19805;DHT22;10062;51.052;13.756;2024-03-17T03:01:33;5.50;1.00
19805;DHT22;10062;51.052;13.756;2024-03-17T03:04:05;5.50;1.00
19805;DHT22;10062;51.052;13.756;2024-03-17T03:06:38;5.50;1.00
19805;DHT22;10062;51.052;13.756;2024-03-17T03:09:11;5.50;1.00
19805;DHT22;10062;51.052;13.756;2024-03-17T03:11:44;5.50;1.00
19805;DHT22;10062;51.052;13.756;2024-03-17T03:14:17;5.30;1.00
19805;DHT22;10062;51.052;13.756;2024-03-17T03:16:49;5.30;1.00
19805;DHT22;10062;51.052;13.756;2024-03-17T03:19:20;5.20;1.00
19805;DHT22;10062;51.052;13.756;2024-03-17T03:21:52;5.20;1.00
19805;DHT22;10062;51.052;13.756;2024-03-17T03:24:25;5.20;1.00
19805;DHT22;10062;51.052;13.756;2024-03-17T03:26:57;5.20;1.00
19805;DHT22;10062;51.052;13.756;2024-03-17T03:29:28;5.10;1.00
19805;DHT22;10062;51.052;13.756;2024-03-17T03:32:00;5.20;1.00
19805;DHT22;10062;51.052;13.756;2024-03-17T03:34:32;5.10;1.00
19805;DHT22;10062;51.052;13.756;2024-03-17T03:37:04;5.20;1.00
19805;DHT22;10062;51.052;13.756;2024-03-17T03:39:38;5.20;1.00
19805;DHT22;10062;51.052;13.756;2024-03-17T03:42:10;5.20;1.00
19805;DHT22;10062;51.052;13.756;2024-03-17T03:44:42;5.20;1.00
19805;DHT22;10062;51.052;13.756;2024-03-17T03:47:14;5.20;1.00
19805;DHT22;10062;51.052;13.756;2024-03-17T03:49:46;5.30;1.00
19805;DHT22;10062;51.052;13.756;2024-03-17T03:52:18;5.30;1.00
19805;DHT22;10062;51.052;13.756;2024-03-17T03:54:52;5.30;1.00
19805;DHT22;10062;51.052;13.756;2024-03-17T03:57:24;5.50;1.00
19805;DHT22;10062;51.052;13.756;2024-03-17T03:59:59;5.40;1.00
19805;DHT22;10062;51.052;13.756;2024-03-17T04:02:31;5.50;1.00
19805;DHT22;10062;51.052;13.756;2024-03-17T04:05:05;5.60;1.00
19805;DHT22;10062;51.052;13.756;2024-03-17T04:07:37;5.60;1.00
19805;DHT22;10062;51.052;13.756;2024-03-17T04:10:11;5.70;1.00
19805;DHT22;10062;51.052;13.756;2024-03-17T04:12:43;5.70;1.00
19805;DHT22;10062;51.052;13.756;2024-03-17T04:15:15;5.80;1.00
19805;DHT22;10062;51.052;13.756;2024-03-17T04:17:46;5.80;1.00
19805;DHT22;10062;51.052;13.756;2024-03-17T04:20:18;5.80;1.00
19805;DHT22;10062;51.052;13.756;2024-03-17T04:22:50;5.80;1.00
19805;DHT22;10062;51.052;13.756;2024-03-17T04:25:23;5.90;1.00
19805;DHT22;10062;51.052;13.756;2024-03-17T04:27:55;5.70;1.00
19805;DHT22;10062;51.052;13.756;2024-03-17T04:30:28;5.70;1.00
19805;DHT22;10062;51.052;13.756;2024-03-17T04:32:59;5.60;1.00
19805;DHT22;10062;51.052;13.756;2024-03-17T04:35:31;5.60;1.00
19805;DHT22;10062;51.052;13.756;2024-03-17T04:38:03;5.60;1.00
19805;DHT22;10062;51.052;13.756;2024-03-17T04:40:40;5.60;1.00
19805;DHT22;10062;51.052;13.756;2024-03-17T04:43:11;7.00;1.00
19805;DHT22;10062;51.052;13.756;2024-03-17T04:45:43;5.70;1.00
19805;DHT22;10062;51.052;13.756;2024-03-17T04:48:15;5.70;1.00
19805;DHT22;10062;51.052;13.756;2024-03-17T04:50:46;5.60;1.00
19805;DHT22;10062;51.052;13.756;2024-03-17T04:53:18;5.80;1.00
19805;DHT22;10062;51.052;13.756;2024-03-17T04:56:02;5.80;1.00
19805;DHT22;10062;51.052;13.756;2024-03-17T04:58:35;5.80;1.00
19805;DHT22;10062;51.052;13.756;2024-03-17T05:01:07;5.70;1.00
19805;DHT22;10062;51.052;13.756;2024-03-17T05:03:39;5.80;1.00
19805;DHT22;10062;51.052;13.756;2024-03-17T05:06:11;5.80;1.00
19805;DHT22;10062;51.052;13.756;2024-03-17T05:08:42;5.80;1.00
19805;DHT22;10062;51.052;13.756;2024-03-17T05:11:16;5.80;1.00
19805;DHT22;10062;51.052;13.756;2024-03-17T05:13:48;5.60;1.00
19805;DHT22;10062;51.052;13.756;2024-03-17T05:16:20;5.70;1.00
19805;DHT22;10062;51.052;13.756;2024-03-17T05:18:54;5.70;1.00
19805;DHT22;10062;51.052;13.756;2024-03-17T05:21:26;5.70;1.00
19805;DHT22;10062;51.052;13.756;2024-03-17T05:24:01;5.70;1.00
19805;DHT22;10062;51.052;13.756;2024-03-17T05:26:34;5.80;1.00
19805;DHT22;10062;51.052;13.756;2024-03-17T05:29:06;5.80;1.00
19805;DHT22;10062;51.052;13.756;2024-03-17T05:31:38;5.80;1.00
19805;DHT22;10062;51.052;13.756;2024-03-17T05:34:10;5.80;1.00
19805;DHT22;10062;51.052;13.756;2024-03-17T05:36:42;5.80;1.00
19805;DHT22;10062;51.052;13.756;2024-03-17T05:39:14;5.80;1.00
19805;DHT22;10062;51.052;13.756;2024-03-17T05:41:46;7.60;1.00
19805;DHT22;10062;51.052;13.756;2024-03-17T05:44:19;5.80;1.00
19805;DHT22;10062;51.052;13.756;2024-03-17T05:46:51;5.80;1.00
19805;DHT22;10062;51.052;13.756;2024-03-17T05:49:24;5.80;1.00
19805;DHT22;10062;51.052;13.756;2024-03-17T05:51:55;5.80;1.00
19805;DHT22;10062;51.052;13.756;2024-03-17T05:54:27;5.90;1.00
19805;DHT22;10062;51.052;13.756;2024-03-17T05:57:00;5.80;1.00
19805;DHT22;10062;51.052;13.756;2024-03-17T05:59:34;5.80;1.00
19805;DHT22;10062;51.052;13.756;2024-03-17T06:02:06;6.00;1.00
19805;DHT22;10062;51.052;13.756;2024-03-17T06:04:40;5.90;1.00
19805;DHT22;10062;51.052;13.756;2024-03-17T06:07:12;5.90;1.00
19805;DHT22;10062;51.052;13.756;2024-03-17T06:09:44;5.90;1.00
19805;DHT22;10062;51.052;13.756;2024-03-17T06:12:19;6.00;1.00
19805;DHT22;10062;51.052;13.756;2024-03-17T06:14:50;6.10;1.00
19805;DHT22;10062;51.052;13.756;2024-03-17T06:17:22;6.10;1.00
19805;DHT22;10062;51.052;13.756;2024-03-17T06:19:54;6.00;1.00
19805;DHT22;10062;51.052;13.756;2024-03-17T06:22:26;6.10;1.00
19805;DHT22;10062;51.052;13.756;2024-03-17T06:24:58;6.10;1.00
19805;DHT22;10062;51.052;13.756;2024-03-17T06:27:31;7.60;1.00
19805;DHT22;10062;51.052;13.756;2024-03-17T06:30:05;6.30;1.00
19805;DHT22;10062;51.052;13.756;2024-03-17T06:32:37;6.40;1.00
19805;DHT22;10062;51.052;13.756;2024-03-17T06:35:09;6.50;1.00
19805;DHT22;10062;51.052;13.756;2024-03-17T06:37:41;6.50;1.00
19805;DHT22;10062;51.052;13.756;2024-03-17T06:40:14;6.50;1.00
19805;DHT22;10062;51.052;13.756;2024-03-17T06:42:48;7.80;1.00
19805;DHT22;10062;51.052;13.756;2024-03-17T06:45:19;6.40;1.00
19805;DHT22;10062;51.052;13.756;2024-03-17T06:47:52;7.70;1.00
19805;DHT22;10062;51.052;13.756;2024-03-17T06:50:24;6.60;1.00
19805;DHT22;10062;51.052;13.756;2024-03-17T06:52:55;7.00;1.00
19805;DHT22;10062;51.052;13.756;2024-03-17T06:55:27;6.70;1.00
19805;DHT22;10062;51.052;13.756;2024-03-17T06:58:00;7.90;1.00
19805;DHT22;10062;51.052;13.756;2024-03-17T07:00:33;8.80;1.00
19805;DHT22;10062;51.052;13.756;2024-03-17T07:03:05;6.70;1.00
19805;DHT22;10062;51.052;13.756;2024-03-17T07:05:37;6.80;1.00
19805;DHT22;10062;51.052;13.756;2024-03-17T07:08:08;6.80;1.00
19805;DHT22;10062;51.052;13.756;2024-03-17T07:10:40;6.90;1.00
19805;DHT22;10062;51.052;13.756;2024-03-17T07:13:13;7.00;1.00
19805;DHT22;10062;51.052;13.756;2024-03-17T07:15:46;6.90;1.00
19805;DHT22;10062;51.052;13.756;2024-03-17T07:18:18;6.50;1.00
19805;DHT22;10062;51.052;13.756;2024-03-17T07:20:50;7.10;1.00
19805;DHT22;10062;51.052;13.756;2024-03-17T07:23:22;7.20;1.00
19805;DHT22;10062;51.052;13.756;2024-03-17T07:25:54;7.40;1.00
19805;DHT22;10062;51.052;13.756;2024-03-17T07:28:27;7.40;1.00
19805;DHT22;10062;51.052;13.756;2024-03-17T07:31:00;7.30;1.00
19805;DHT22;10062;51.052;13.756;2024-03-17T07:33:32;7.30;1.00
19805;DHT22;10062;51.052;13.756;2024-03-17T07:36:04;7.40;1.00
19805;DHT22;10062;51.052;13.756;2024-03-17T07:38:37;7.50;1.00
19805;DHT22;10062;51.052;13.756;2024-03-17T07:41:09;7.50;1.00
19805;DHT22;10062;51.052;13.756;2024-03-17T07:43:42;7.70;1.00
19805;DHT22;10062;51.052;13.756;2024-03-17T07:46:14;7.80;1.00
19805;DHT22;10062;51.052;13.756;2024-03-17T07:48:46;7.90;1.00
19805;DHT22;10062;51.052;13.756;2024-03-17T07:51:17;7.90;1.00
19805;DHT22;10062;51.052;13.756;2024-03-17T07:53:49;8.30;1.00
19805;DHT22;10062;51.052;13.756;2024-03-17T07:56:22;8.50;99.90
19805;DHT22;10062;51.052;13.756;2024-03-17T07:58:55;8.70;1.00
19805;DHT22;10062;51.052;13.756;2024-03-17T08:01:27;8.50;1.00
19805;DHT22;10062;51.052;13.756;2024-03-17T08:03:58;8.30;99.90
19805;DHT22;10062;51.052;13.756;2024-03-17T08:06:31;8.50;1.00
19805;DHT22;10062;51.052;13.756;2024-03-17T08:09:02;9.00;99.90
19805;DHT22;10062;51.052;13.756;2024-03-17T08:11:34;9.30;99.90
19805;DHT22;10062;51.052;13.756;2024-03-17T08:14:07;9.70;1.00
19805;DHT22;10062;51.052;13.756;2024-03-17T08:16:39;10.00;1.00
19805;DHT22;10062;51.052;13.756;2024-03-17T08:19:10;10.10;1.00
19805;DHT22;10062;51.052;13.756;2024-03-17T08:21:42;10.20;99.90
19805;DHT22;10062;51.052;13.756;2024-03-17T08:24:13;10.50;67.20
19805;DHT22;10062;51.052;13.756;2024-03-17T08:26:44;10.70;1.00
19805;DHT22;10062;51.052;13.756;2024-03-17T08:29:18;10.90;99.90
19805;DHT22;10062;51.052;13.756;2024-03-17T08:31:49;10.80;1.00
19805;DHT22;10062;51.052;13.756;2024-03-17T08:34:21;10.80;1.00
19805;DHT22;10062;51.052;13.756;2024-03-17T08:36:53;10.80;1.00
19805;DHT22;10062;51.052;13.756;2024-03-17T08:39:24;10.40;1.00
19805;DHT22;10062;51.052;13.756;2024-03-17T08:41:56;10.60;99.90
19805;DHT22;10062;51.052;13.756;2024-03-17T08:44:29;10.90;99.90
19805;DHT22;10062;51.052;13.756;2024-03-17T08:47:01;10.80;99.90
19805;DHT22;10062;51.052;13.756;2024-03-17T08:49:33;10.50;1.00
19805;DHT22;10062;51.052;13.756;2024-03-17T08:52:04;10.40;1.00
19805;DHT22;10062;51.052;13.756;2024-03-17T08:54:37;10.10;1.00
19805;DHT22;10062;51.052;13.756;2024-03-17T08:57:09;10.30;1.00
19805;DHT22;10062;51.052;13.756;2024-03-17T08:59:42;10.30;99.90
19805;DHT22;10062;51.052;13.756;2024-03-17T09:02:14;10.10;99.90
19805;DHT22;10062;51.052;13.756;2024-03-17T09:04:46;10.10;99.90
19805;DHT22;10062;51.052;13.756;2024-03-17T09:07:17;10.20;99.90
19805;DHT22;10062;51.052;13.756;2024-03-17T09:09:49;10.10;1.00
19805;DHT22;10062;51.052;13.756;2024-03-17T09:12:21;10.00;99.90
19805;DHT22;10062;51.052;13.756;2024-03-17T09:14:54;10.10;1.00
19805;DHT22;10062;51.052;13.756;2024-03-17T09:17:25;10.20;1.00
19805;DHT22;10062;51.052;13.756;2024-03-17T09:19:57;10.10;1.00
19805;DHT22;10062;51.052;13.756;2024-03-17T09:22:29;10.20;99.90
19805;DHT22;10062;51.052;13.756;2024-03-17T09:25:00;10.10;1.00
19805;DHT22;10062;51.052;13.756;2024-03-17T09:27:32;10.00;1.00
19805;DHT22;10062;51.052;13.756;2024-03-17T09:30:06;10.00;89.30
19805;DHT22;10062;51.052;13.756;2024-03-17T09:32:39;10.30;1.00
19805;DHT22;10062;51.052;13.756;2024-03-17T09:35:11;10.60;1.00
19805;DHT22;10062;51.052;13.756;2024-03-17T09:37:43;10.60;1.00
19805;DHT22;10062;51.052;13.756;2024-03-17T09:40:15;10.70;1.00
19805;DHT22;10062;51.052;13.756;2024-03-17T09:42:47;11.00;99.90
19805;DHT22;10062;51.052;13.756;2024-03-17T09:45:20;10.80;99.90
19805;DHT22;10062;51.052;13.756;2024-03-17T09:47:52;11.60;99.90
19805;DHT22;10062;51.052;13.756;2024-03-17T09:50:25;12.20;1.00
19805;DHT22;10062;51.052;13.756;2024-03-17T09:52:57;13.30;1.00
19805;DHT22;10062;51.052;13.756;2024-03-17T09:55:30;13.50;99.90
19805;DHT22;10062;51.052;13.756;2024-03-17T09:58:02;13.90;1.00
19805;DHT22;10062;51.052;13.756;2024-03-17T10:00:35;15.80;1.00
19805;DHT22;10062;51.052;13.756;2024-03-17T10:03:07;16.30;1.00
19805;DHT22;10062;51.052;13.756;2024-03-17T10:05:38;16.10;99.90
19805;DHT22;10062;51.052;13.756;2024-03-17T10:08:21;15.50;99.90
19805;DHT22;10062;51.052;13.756;2024-03-17T10:10:52;16.90;99.90
19805;DHT22;10062;51.052;13.756;2024-03-17T10:13:25;16.80;99.90
19805;DHT22;10062;51.052;13.756;2024-03-17T10:15:58;19.70;99.90
19805;DHT22;10062;51.052;13.756;2024-03-17T10:18:30;23.30;99.90
19805;DHT22;10062;51.052;13.756;2024-03-17T10:21:02;22.00;99.90
19805;DHT22;10062;51.052;13.756;2024-03-17T10:23:35;19.80;99.90
19805;DHT22;10062;51.052;13.756;2024-03-17T10:26:13;20.30;99.90
19805;DHT22;10062;51.052;13.756;2024-03-17T10:28:45;20.30;99.90
19805;DHT22;10062;51.052;13.756;2024-03-17T10:31:18;19.30;91.00
19805;DHT22;10062;51.052;13.756;2024-03-17T10:34:01;18.40;42.00
19805;DHT22;10062;51.052;13.756;2024-03-17T10:36:33;18.60;40.40
19805;DHT22;10062;51.052;13.756;2024-03-17T10:39:04;16.90;11.70
19805;DHT22;10062;51.052;13.756;2024-03-17T10:41:37;17.10;15.20
19805;DHT22;10062;51.052;13.756;2024-03-17T10:44:09;16.20;7.50
19805;DHT22;10062;51.052;13.756;2024-03-17T10:46:43;15.50;12.40
19805;DHT22;10062;51.052;13.756;2024-03-17T10:49:16;13.80;6.00
19805;DHT22;10062;51.052;13.756;2024-03-17T10:51:51;13.30;99.90
19805;DHT22;10062;51.052;13.756;2024-03-17T10:54:27;12.40;99.90
19805;DHT22;10062;51.052;13.756;2024-03-17T10:57:12;11.90;1.00
19805;DHT22;10062;51.052;13.756;2024-03-17T10:59:47;11.70;1.00
19805;DHT22;10062;51.052;13.756;2024-03-17T11:02:23;11.10;99.90
19805;DHT22;10062;51.052;13.756;2024-03-17T11:04:57;11.20;99.90
19805;DHT22;10062;51.052;13.756;2024-03-17T11:07:29;13.20;1.00
19805;DHT22;10062;51.052;13.756;2024-03-17T11:10:02;14.90;1.00
19805;DHT22;10062;51.052;13.756;2024-03-17T11:12:41;16.70;99.90
19805;DHT22;10062;51.052;13.756;2024-03-17T11:15:38;15.60;99.90
19805;DHT22;10062;51.052;13.756;2024-03-17T11:18:36;14.70;99.90
19805;DHT22;10062;51.052;13.756;2024-03-17T11:21:19;19.60;99.90
19805;DHT22;10062;51.052;13.756;2024-03-17T11:23:56;23.30;99.90
19805;DHT22;10062;51.052;13.756;2024-03-17T11:26:33;23.70;94.60
19805;DHT22;10062;51.052;13.756;2024-03-17T11:29:05;20.40;1.00
19805;DHT22;10062;51.052;13.756;2024-03-17T11:31:40;19.60;1.00
19805;DHT22;10062;51.052;13.756;2024-03-17T11:34:31;18.20;1.00
19805;DHT22;10062;51.052;13.756;2024-03-17T11:37:04;16.40;1.00
19805;DHT22;10062;51.052;13.756;2024-03-17T11:39:55;15.60;1.00
19805;DHT22;10062;51.052;13.756;2024-03-17T11:42:29;15.00;1.00
19805;DHT22;10062;51.052;13.756;2024-03-17T11:45:04;14.20;1.00
19805;DHT22;10062;51.052;13.756;2024-03-17T11:47:40;14.30;1.00
19805;DHT22;10062;51.052;13.756;2024-03-17T11:50:15;14.80;1.00
19805;DHT22;10062;51.052;13.756;2024-03-17T11:52:46;15.10;1.00
19805;DHT22;10062;51.052;13.756;2024-03-17T11:55:28;15.50;19.10
19805;DHT22;10062;51.052;13.756;2024-03-17T11:57:59;14.70;1.00
19805;DHT22;10062;51.052;13.756;2024-03-17T12:00:36;13.80;46.50
19805;DHT22;10062;51.052;13.756;2024-03-17T12:03:09;14.00;99.90
19805;DHT22;10062;51.052;13.756;2024-03-17T12:05:43;13.80;99.90
19805;DHT22;10062;51.052;13.756;2024-03-17T12:08:20;13.50;99.90
19805;DHT22;10062;51.052;13.756;2024-03-17T12:10:51;13.40;99.90
19805;DHT22;10062;51.052;13.756;2024-03-17T12:13:22;13.70;99.90
19805;DHT22;10062;51.052;13.756;2024-03-17T12:16:10;13.80;99.90
19805;DHT22;10062;51.052;13.756;2024-03-17T12:18:41;13.70;99.90
19805;DHT22;10062;51.052;13.756;2024-03-17T12:21:17;14.10;99.90
19805;DHT22;10062;51.052;13.756;2024-03-17T12:23:48;14.50;99.90
19805;DHT22;10062;51.052;13.756;2024-03-17T12:26:19;14.20;99.90
19805;DHT22;10062;51.052;13.756;2024-03-17T12:28:50;14.40;99.90
19805;DHT22;10062;51.052;13.756;2024-03-17T12:31:22;14.50;99.90
19805;DHT22;10062;51.052;13.756;2024-03-17T12:33:52;14.80;99.90
19805;DHT22;10062;51.052;13.756;2024-03-17T12:36:25;14.80;99.90
19805;DHT22;10062;51.052;13.756;2024-03-17T12:39:10;14.80;99.90
19805;DHT22;10062;51.052;13.756;2024-03-17T12:41:42;15.00;99.90
19805;DHT22;10062;51.052;13.756;2024-03-17T12:44:31;15.20;99.90
19805;DHT22;10062;51.052;13.756;2024-03-17T12:47:04;15.50;99.90
19805;DHT22;10062;51.052;13.756;2024-03-17T12:49:36;15.80;83.10
19805;DHT22;10062;51.052;13.756;2024-03-17T12:52:20;15.90;76.50
19805;DHT22;10062;51.052;13.756;2024-03-17T12:54:59;16.20;45.80
19805;DHT22;10062;51.052;13.756;2024-03-17T12:57:45;15.90;13.60
19805;DHT22;10062;51.052;13.756;2024-03-17T13:00:36;16.00;37.90
19805;DHT22;10062;51.052;13.756;2024-03-17T13:03:08;15.50;34.20
19805;DHT22;10062;51.052;13.756;2024-03-17T13:05:47;15.30;11.50
19805;DHT22;10062;51.052;13.756;2024-03-17T13:08:20;14.40;23.70
19805;DHT22;10062;51.052;13.756;2024-03-17T13:10:51;14.20;59.00
19805;DHT22;10062;51.052;13.756;2024-03-17T13:13:23;14.00;99.90
19805;DHT22;10062;51.052;13.756;2024-03-17T13:15:55;14.70;99.90
19805;DHT22;10062;51.052;13.756;2024-03-17T13:18:26;15.00;99.90
19805;DHT22;10062;51.052;13.756;2024-03-17T13:20:58;14.80;81.30
19805;DHT22;10062;51.052;13.756;2024-03-17T13:23:33;14.70;93.50
19805;DHT22;10062;51.052;13.756;2024-03-17T13:26:05;14.90;81.30
19805;DHT22;10062;51.052;13.756;2024-03-17T13:28:37;14.70;91.10
19805;DHT22;10062;51.052;13.756;2024-03-17T13:31:10;14.30;88.60
19805;DHT22;10062;51.052;13.756;2024-03-17T13:33:41;14.40;99.90
19805;DHT22;10062;51.052;13.756;2024-03-17T13:36:13;14.80;99.90
19805;DHT22;10062;51.052;13.756;2024-03-17T13:38:47;14.90;99.90
19805;DHT22;10062;51.052;13.756;2024-03-17T13:41:23;15.00;99.90
19805;DHT22;10062;51.052;13.756;2024-03-17T13:43:55;15.00;99.90
19805;DHT22;10062;51.052;13.756;2024-03-17T13:46:28;14.90;80.50
19805;DHT22;10062;51.052;13.756;2024-03-17T13:49:07;15.00;99.90
19805;DHT22;10062;51.052;13.756;2024-03-17T13:51:38;15.50;99.90
19805;DHT22;10062;51.052;13.756;2024-03-17T13:54:11;15.70;99.90
19805;DHT22;10062;51.052;13.756;2024-03-17T13:56:46;16.20;98.20
19805;DHT22;10062;51.052;13.756;2024-03-17T13:59:18;16.30;50.10
19805;DHT22;10062;51.052;13.756;2024-03-17T14:01:49;16.70;28.30
19805;DHT22;10062;51.052;13.756;2024-03-17T14:04:21;16.90;21.10
19805;DHT22;10062;51.052;13.756;2024-03-17T14:06:53;17.00;1.00
19805;DHT22;10062;51.052;13.756;2024-03-17T14:09:30;16.80;1.00
19805;DHT22;10062;51.052;13.756;2024-03-17T14:12:02;16.50;1.00
19805;DHT22;10062;51.052;13.756;2024-03-17T14:14:33;16.60;1.00
19805;DHT22;10062;51.052;13.756;2024-03-17T14:17:05;16.40;1.00
19805;DHT22;10062;51.052;13.756;2024-03-17T14:19:38;16.30;1.00
19805;DHT22;10062;51.052;13.756;2024-03-17T14:22:09;16.00;1.00
19805;DHT22;10062;51.052;13.756;2024-03-17T14:24:42;15.40;1.00
19805;DHT22;10062;51.052;13.756;2024-03-17T14:27:14;15.20;1.00
19805;DHT22;10062;51.052;13.756;2024-03-17T14:29:46;15.00;1.00
19805;DHT22;10062;51.052;13.756;2024-03-17T14:32:18;14.90;1.00
19805;DHT22;10062;51.052;13.756;2024-03-17T14:34:49;15.20;1.00
19805;DHT22;10062;51.052;13.756;2024-03-17T14:37:21;15.10;1.00
19805;DHT22;10062;51.052;13.756;2024-03-17T14:39:54;15.30;1.00
19805;DHT22;10062;51.052;13.756;2024-03-17T14:42:26;15.40;1.00
19805;DHT22;10062;51.052;13.756;2024-03-17T14:44:58;15.50;1.00
19805;DHT22;10062;51.052;13.756;2024-03-17T14:47:31;15.50;10.30
19805;DHT22;10062;51.052;13.756;2024-03-17T14:50:02;15.20;1.00
19805;DHT22;10062;51.052;13.756;2024-03-17T14:52:34;15.00;1.00
19805;DHT22;10062;51.052;13.756;2024-03-17T14:55:08;14.90;1.00
19805;DHT22;10062;51.052;13.756;2024-03-17T14:57:41;14.80;1.00
19805;DHT22;10062;51.052;13.756;2024-03-17T15:00:13;14.90;9.40
19805;DHT22;10062;51.052;13.756;2024-03-17T15:02:47;15.00;18.00
19805;DHT22;10062;51.052;13.756;2024-03-17T15:05:19;14.90;1.00
19805;DHT22;10062;51.052;13.756;2024-03-17T15:07:52;14.00;1.00
19805;DHT22;10062;51.052;13.756;2024-03-17T15:10:26;14.00;1.00
19805;DHT22;10062;51.052;13.756;2024-03-17T15:12:57;13.40;2.50
19805;DHT22;10062;51.052;13.756;2024-03-17T15:15:29;13.30;30.20
19805;DHT22;10062;51.052;13.756;2024-03-17T15:18:01;13.30;99.90
19805;DHT22;10062;51.052;13.756;2024-03-17T15:20:32;13.40;99.90
19805;DHT22;10062;51.052;13.756;2024-03-17T15:23:05;13.40;99.90
19805;DHT22;10062;51.052;13.756;2024-03-17T15:25:38;13.40;99.90
19805;DHT22;10062;51.052;13.756;2024-03-17T15:28:10;13.20;99.90
19805;DHT22;10062;51.052;13.756;2024-03-17T15:30:43;13.20;99.90
19805;DHT22;10062;51.052;13.756;2024-03-17T15:33:15;13.30;99.90
19805;DHT22;10062;51.052;13.756;2024-03-17T15:35:46;13.00;99.90
19805;DHT22;10062;51.052;13.756;2024-03-17T15:38:19;12.80;99.90
19805;DHT22;10062;51.052;13.756;2024-03-17T15:40:53;12.50;99.90
19805;DHT22;10062;51.052;13.756;2024-03-17T15:43:25;12.30;99.90
19805;DHT22;10062;51.052;13.756;2024-03-17T15:45:57;12.40;99.90
19805;DHT22;10062;51.052;13.756;2024-03-17T15:48:29;12.40;99.90
19805;DHT22;10062;51.052;13.756;2024-03-17T15:51:00;12.30;1.00
19805;DHT22;10062;51.052;13.756;2024-03-17T15:53:32;12.50;1.00
19805;DHT22;10062;51.052;13.756;2024-03-17T15:56:05;12.40;99.90
19805;DHT22;10062;51.052;13.756;2024-03-17T15:58:37;12.10;1.00
19805;DHT22;10062;51.052;13.756;2024-03-17T16:01:10;12.00;99.90
19805;DHT22;10062;51.052;13.756;2024-03-17T16:03:43;12.00;99.90
19805;DHT22;10062;51.052;13.756;2024-03-17T16:06:17;12.00;1.00
19805;DHT22;10062;51.052;13.756;2024-03-17T16:08:50;11.80;99.90
19805;DHT22;10062;51.052;13.756;2024-03-17T16:11:28;11.60;1.00